FDMS

Matsapha Airport

Manzini, Swaziland
METAR FDMS 171400Z VRB02KT 9999 SCT030 16/09 Q1034 NOSIG
Observed Flight Rules
Jul-17 @ 14:00 UTC (9 hours ago) Visual Flight Rules
Wind Visibility Clouds
Variable at 2 knots 10,000+ meters
  • Scattered at 3,000' AGL
Temperatures Readings
Current 16°C / 61°F
Dewpoint 9°C / 48°F
Humidity 63%
Altimeter 30.53" Hg
Pressure 1034 hPa
Elevation 641
METAR FDMS 171400Z VRB02KT 9999 SCT030 16/09 Q1034 NOSIG
Observed Flight Rules
Jul-17 @ 14:00 UTC
(9 hours ago)
VFR
Wind Visibility
Variable at 2 knots 10,000+ meters
Clouds
  • Scattered at 3,000' AGL
Temperature Dewpoint
16°C / 61°F 9°C / 48°F
Humidity Altimeter Pressure
63% 30.53" Hg 1034 hPa